sensor_id;sensor_type;location;lat;lon;timestamp;P1;durP1;ratioP1;P2;durP2;ratioP2
23119;SDS011;11729;50.836;4.330;2022-08-02T00:01:31;10.13;;;5.80;;
23119;SDS011;11729;50.836;4.330;2022-08-02T00:03:56;8.68;;;6.10;;
23119;SDS011;11729;50.836;4.330;2022-08-02T00:06:22;9.20;;;5.80;;
23119;SDS011;11729;50.836;4.330;2022-08-02T00:08:47;8.85;;;5.93;;
23119;SDS011;11729;50.836;4.330;2022-08-02T00:11:13;7.80;;;6.13;;
23119;SDS011;11729;50.836;4.330;2022-08-02T00:13:39;6.97;;;5.55;;
23119;SDS011;11729;50.836;4.330;2022-08-02T00:16:05;7.35;;;5.70;;
23119;SDS011;11729;50.836;4.330;2022-08-02T00:18:30;7.63;;;5.80;;
23119;SDS011;11729;50.836;4.330;2022-08-02T00:20:56;11.48;;;5.95;;
23119;SDS011;11729;50.836;4.330;2022-08-02T00:23:22;6.50;;;5.90;;
23119;SDS011;11729;50.836;4.330;2022-08-02T00:25:47;8.07;;;6.18;;
23119;SDS011;11729;50.836;4.330;2022-08-02T00:28:13;7.70;;;5.97;;
23119;SDS011;11729;50.836;4.330;2022-08-02T00:30:38;6.10;;;5.50;;
23119;SDS011;11729;50.836;4.330;2022-08-02T00:33:04;6.90;;;6.00;;
23119;SDS011;11729;50.836;4.330;2022-08-02T00:35:30;10.63;;;5.90;;
23119;SDS011;11729;50.836;4.330;2022-08-02T00:37:56;8.80;;;6.30;;
23119;SDS011;11729;50.836;4.330;2022-08-02T00:40:22;8.57;;;5.90;;
23119;SDS011;11729;50.836;4.330;2022-08-02T00:43:01;9.30;;;6.05;;
23119;SDS011;11729;50.836;4.330;2022-08-02T00:45:31;11.95;;;6.30;;
23119;SDS011;11729;50.836;4.330;2022-08-02T00:47:57;10.15;;;5.95;;
23119;SDS011;11729;50.836;4.330;2022-08-02T00:50:23;8.50;;;5.97;;
23119;SDS011;11729;50.836;4.330;2022-08-02T00:52:49;7.32;;;5.95;;
23119;SDS011;11729;50.836;4.330;2022-08-02T00:55:14;9.32;;;5.97;;
23119;SDS011;11729;50.836;4.330;2022-08-02T00:57:40;9.25;;;6.20;;
23119;SDS011;11729;50.836;4.330;2022-08-02T01:00:05;8.88;;;6.13;;
23119;SDS011;11729;50.836;4.330;2022-08-02T01:02:31;8.05;;;6.00;;
23119;SDS011;11729;50.836;4.330;2022-08-02T01:04:57;8.55;;;6.28;;
23119;SDS011;11729;50.836;4.330;2022-08-02T01:07:23;10.07;;;5.90;;
23119;SDS011;11729;50.836;4.330;2022-08-02T01:09:49;6.10;;;5.53;;
23119;SDS011;11729;50.836;4.330;2022-08-02T01:12:14;9.48;;;6.28;;
23119;SDS011;11729;50.836;4.330;2022-08-02T01:14:41;7.10;;;6.25;;
23119;SDS011;11729;50.836;4.330;2022-08-02T01:17:15;6.85;;;5.93;;
23119;SDS011;11729;50.836;4.330;2022-08-02T01:29:28;6.45;;;5.82;;
23119;SDS011;11729;50.836;4.330;2022-08-02T01:40:04;9.85;;;6.53;;
23119;SDS011;11729;50.836;4.330;2022-08-02T01:42:33;6.93;;;6.20;;
23119;SDS011;11729;50.836;4.330;2022-08-02T01:45:03;9.02;;;6.47;;
23119;SDS011;11729;50.836;4.330;2022-08-02T01:47:32;9.23;;;6.40;;
23119;SDS011;11729;50.836;4.330;2022-08-02T01:50:01;7.93;;;6.75;;
23119;SDS011;11729;50.836;4.330;2022-08-02T01:52:30;8.40;;;6.57;;
23119;SDS011;11729;50.836;4.330;2022-08-02T01:55:09;8.73;;;6.85;;
23119;SDS011;11729;50.836;4.330;2022-08-02T01:57:50;8.88;;;6.72;;
23119;SDS011;11729;50.836;4.330;2022-08-02T02:00:20;8.25;;;6.00;;
23119;SDS011;11729;50.836;4.330;2022-08-02T02:02:47;7.57;;;6.80;;
23119;SDS011;11729;50.836;4.330;2022-08-02T02:05:19;8.52;;;6.63;;
23119;SDS011;11729;50.836;4.330;2022-08-02T02:07:48;6.82;;;6.13;;
23119;SDS011;11729;50.836;4.330;2022-08-02T02:10:21;6.95;;;6.38;;
23119;SDS011;11729;50.836;4.330;2022-08-02T02:12:50;7.30;;;6.60;;
23119;SDS011;11729;50.836;4.330;2022-08-02T02:15:18;7.63;;;6.85;;
23119;SDS011;11729;50.836;4.330;2022-08-02T02:17:45;8.02;;;6.50;;
23119;SDS011;11729;50.836;4.330;2022-08-02T02:20:14;11.18;;;6.60;;
23119;SDS011;11729;50.836;4.330;2022-08-02T02:22:43;6.75;;;6.13;;
23119;SDS011;11729;50.836;4.330;2022-08-02T02:25:12;11.43;;;7.13;;
23119;SDS011;11729;50.836;4.330;2022-08-02T02:27:44;8.20;;;6.55;;
23119;SDS011;11729;50.836;4.330;2022-08-02T02:30:22;7.55;;;6.82;;
23119;SDS011;11729;50.836;4.330;2022-08-02T02:32:51;9.20;;;6.88;;
23119;SDS011;11729;50.836;4.330;2022-08-02T02:37:45;9.80;;;6.80;;
23119;SDS011;11729;50.836;4.330;2022-08-02T02:42:40;11.80;;;7.15;;
23119;SDS011;11729;50.836;4.330;2022-08-02T02:45:07;7.97;;;7.25;;
23119;SDS011;11729;50.836;4.330;2022-08-02T02:47:34;8.98;;;7.20;;
23119;SDS011;11729;50.836;4.330;2022-08-02T02:50:00;7.80;;;6.95;;
23119;SDS011;11729;50.836;4.330;2022-08-02T02:52:26;8.68;;;6.78;;
23119;SDS011;11729;50.836;4.330;2022-08-02T02:54:52;8.57;;;7.15;;
23119;SDS011;11729;50.836;4.330;2022-08-02T02:57:19;11.98;;;7.40;;
23119;SDS011;11729;50.836;4.330;2022-08-02T02:59:46;15.13;;;7.72;;
23119;SDS011;11729;50.836;4.330;2022-08-02T03:02:11;10.32;;;7.70;;
23119;SDS011;11729;50.836;4.330;2022-08-02T03:04:39;9.60;;;7.45;;
23119;SDS011;11729;50.836;4.330;2022-08-02T03:07:06;8.18;;;7.20;;
23119;SDS011;11729;50.836;4.330;2022-08-02T03:09:33;10.60;;;7.47;;
23119;SDS011;11729;50.836;4.330;2022-08-02T03:11:58;8.48;;;7.68;;
23119;SDS011;11729;50.836;4.330;2022-08-02T03:14:24;9.05;;;7.97;;
23119;SDS011;11729;50.836;4.330;2022-08-02T03:16:51;9.82;;;7.70;;
23119;SDS011;11729;50.836;4.330;2022-08-02T03:19:18;11.52;;;8.27;;
23119;SDS011;11729;50.836;4.330;2022-08-02T03:21:45;9.10;;;8.20;;
23119;SDS011;11729;50.836;4.330;2022-08-02T03:24:12;8.75;;;7.75;;
23119;SDS011;11729;50.836;4.330;2022-08-02T03:26:38;9.65;;;7.95;;
23119;SDS011;11729;50.836;4.330;2022-08-02T03:29:04;9.35;;;8.32;;
23119;SDS011;11729;50.836;4.330;2022-08-02T03:31:30;10.07;;;8.02;;
23119;SDS011;11729;50.836;4.330;2022-08-02T03:33:56;10.50;;;7.97;;
23119;SDS011;11729;50.836;4.330;2022-08-02T03:36:24;10.15;;;8.48;;
23119;SDS011;11729;50.836;4.330;2022-08-02T03:38:51;10.02;;;8.70;;
23119;SDS011;11729;50.836;4.330;2022-08-02T03:41:19;12.68;;;8.63;;
23119;SDS011;11729;50.836;4.330;2022-08-02T03:43:46;15.02;;;8.23;;
23119;SDS011;11729;50.836;4.330;2022-08-02T03:46:13;14.82;;;8.70;;
23119;SDS011;11729;50.836;4.330;2022-08-02T03:48:41;9.75;;;8.77;;
23119;SDS011;11729;50.836;4.330;2022-08-02T03:51:07;13.77;;;9.48;;
23119;SDS011;11729;50.836;4.330;2022-08-02T03:53:33;10.88;;;9.77;;
23119;SDS011;11729;50.836;4.330;2022-08-02T03:56:00;14.52;;;8.90;;
23119;SDS011;11729;50.836;4.330;2022-08-02T03:58:26;14.07;;;9.68;;
23119;SDS011;11729;50.836;4.330;2022-08-02T04:00:52;15.85;;;9.20;;
23119;SDS011;11729;50.836;4.330;2022-08-02T04:03:19;16.10;;;9.80;;
23119;SDS011;11729;50.836;4.330;2022-08-02T04:05:45;12.88;;;9.52;;
23119;SDS011;11729;50.836;4.330;2022-08-02T04:08:10;16.23;;;10.00;;
23119;SDS011;11729;50.836;4.330;2022-08-02T04:10:36;17.38;;;10.10;;
23119;SDS011;11729;50.836;4.330;2022-08-02T04:13:21;21.08;;;9.98;;
23119;SDS011;11729;50.836;4.330;2022-08-02T04:15:52;24.42;;;10.88;;
23119;SDS011;11729;50.836;4.330;2022-08-02T04:18:22;25.98;;;12.15;;
23119;SDS011;11729;50.836;4.330;2022-08-02T04:20:52;26.00;;;11.13;;
23119;SDS011;11729;50.836;4.330;2022-08-02T04:23:20;23.65;;;10.90;;
23119;SDS011;11729;50.836;4.330;2022-08-02T04:25:49;15.93;;;10.50;;
23119;SDS011;11729;50.836;4.330;2022-08-02T04:28:17;16.35;;;11.18;;
23119;SDS011;11729;50.836;4.330;2022-08-02T04:30:43;20.98;;;10.18;;
23119;SDS011;11729;50.836;4.330;2022-08-02T04:33:14;13.30;;;9.88;;
23119;SDS011;11729;50.836;4.330;2022-08-02T04:35:40;12.70;;;9.90;;
23119;SDS011;11729;50.836;4.330;2022-08-02T04:38:06;12.20;;;9.57;;
23119;SDS011;11729;50.836;4.330;2022-08-02T04:40:32;16.33;;;10.23;;
23119;SDS011;11729;50.836;4.330;2022-08-02T04:42:57;18.73;;;10.30;;
23119;SDS011;11729;50.836;4.330;2022-08-02T04:45:23;19.25;;;10.60;;
23119;SDS011;11729;50.836;4.330;2022-08-02T04:47:51;23.83;;;10.50;;
23119;SDS011;11729;50.836;4.330;2022-08-02T04:50:18;17.45;;;10.20;;
23119;SDS011;11729;50.836;4.330;2022-08-02T04:52:44;20.27;;;10.60;;
23119;SDS011;11729;50.836;4.330;2022-08-02T04:55:10;20.15;;;10.40;;
23119;SDS011;11729;50.836;4.330;2022-08-02T04:57:36;18.13;;;10.70;;
23119;SDS011;11729;50.836;4.330;2022-08-02T05:00:20;22.02;;;11.10;;
23119;SDS011;11729;50.836;4.330;2022-08-02T05:02:46;20.10;;;10.70;;
23119;SDS011;11729;50.836;4.330;2022-08-02T05:05:12;21.08;;;11.05;;
23119;SDS011;11729;50.836;4.330;2022-08-02T05:07:37;15.48;;;10.93;;
23119;SDS011;11729;50.836;4.330;2022-08-02T05:10:03;16.15;;;9.80;;
23119;SDS011;11729;50.836;4.330;2022-08-02T05:12:29;16.45;;;10.80;;
23119;SDS011;11729;50.836;4.330;2022-08-02T05:14:55;19.40;;;10.27;;
23119;SDS011;11729;50.836;4.330;2022-08-02T05:17:20;15.13;;;10.25;;
23119;SDS011;11729;50.836;4.330;2022-08-02T05:19:46;16.58;;;11.38;;
23119;SDS011;11729;50.836;4.330;2022-08-02T05:22:11;14.98;;;11.07;;
23119;SDS011;11729;50.836;4.330;2022-08-02T05:24:37;14.90;;;11.48;;
23119;SDS011;11729;50.836;4.330;2022-08-02T05:27:02;17.88;;;11.50;;
23119;SDS011;11729;50.836;4.330;2022-08-02T05:29:28;18.65;;;11.10;;
23119;SDS011;11729;50.836;4.330;2022-08-02T05:31:54;13.25;;;10.88;;
23119;SDS011;11729;50.836;4.330;2022-08-02T05:34:19;12.50;;;10.52;;
23119;SDS011;11729;50.836;4.330;2022-08-02T05:36:45;14.65;;;11.13;;
23119;SDS011;11729;50.836;4.330;2022-08-02T05:39:10;17.60;;;11.18;;
23119;SDS011;11729;50.836;4.330;2022-08-02T05:41:36;15.20;;;10.90;;
23119;SDS011;11729;50.836;4.330;2022-08-02T05:44:02;15.63;;;11.15;;
23119;SDS011;11729;50.836;4.330;2022-08-02T05:46:28;16.75;;;11.57;;
23119;SDS011;11729;50.836;4.330;2022-08-02T05:48:53;17.73;;;11.40;;
23119;SDS011;11729;50.836;4.330;2022-08-02T05:51:30;16.85;;;11.95;;
23119;SDS011;11729;50.836;4.330;2022-08-02T05:54:08;15.23;;;10.95;;
23119;SDS011;11729;50.836;4.330;2022-08-02T05:57:16;14.15;;;11.13;;
23119;SDS011;11729;50.836;4.330;2022-08-02T06:00:13;16.90;;;11.60;;
23119;SDS011;11729;50.836;4.330;2022-08-02T06:05:11;17.02;;;11.40;;
23119;SDS011;11729;50.836;4.330;2022-08-02T06:07:39;13.30;;;11.57;;
23119;SDS011;11729;50.836;4.330;2022-08-02T06:10:06;17.63;;;10.70;;
23119;SDS011;11729;50.836;4.330;2022-08-02T06:12:35;17.42;;;10.70;;
23119;SDS011;11729;50.836;4.330;2022-08-02T06:15:15;12.60;;;9.07;;
23119;SDS011;11729;50.836;4.330;2022-08-02T06:17:42;13.30;;;9.30;;
23119;SDS011;11729;50.836;4.330;2022-08-02T06:20:11;15.07;;;8.95;;
23119;SDS011;11729;50.836;4.330;2022-08-02T06:22:42;16.30;;;9.25;;
23119;SDS011;11729;50.836;4.330;2022-08-02T06:25:11;11.48;;;8.73;;
23119;SDS011;11729;50.836;4.330;2022-08-02T06:27:38;13.73;;;8.75;;
23119;SDS011;11729;50.836;4.330;2022-08-02T06:30:05;12.25;;;7.93;;
23119;SDS011;11729;50.836;4.330;2022-08-02T06:34:58;14.23;;;7.78;;
23119;SDS011;11729;50.836;4.330;2022-08-02T06:43:06;10.05;;;6.68;;
23119;SDS011;11729;50.836;4.330;2022-08-02T06:45:36;8.27;;;6.60;;
23119;SDS011;11729;50.836;4.330;2022-08-02T06:48:02;10.38;;;6.13;;
23119;SDS011;11729;50.836;4.330;2022-08-02T06:50:29;6.97;;;5.90;;
23119;SDS011;11729;50.836;4.330;2022-08-02T06:52:55;8.60;;;6.00;;
23119;SDS011;11729;50.836;4.330;2022-08-02T06:55:21;6.28;;;5.60;;
23119;SDS011;11729;50.836;4.330;2022-08-02T06:57:46;10.25;;;5.65;;
23119;SDS011;11729;50.836;4.330;2022-08-02T07:00:12;9.63;;;5.45;;
23119;SDS011;11729;50.836;4.330;2022-08-02T07:02:38;7.70;;;5.45;;
23119;SDS011;11729;50.836;4.330;2022-08-02T07:05:04;7.55;;;5.05;;
23119;SDS011;11729;50.836;4.330;2022-08-02T07:09:57;8.88;;;5.15;;
23119;SDS011;11729;50.836;4.330;2022-08-02T07:12:23;7.63;;;5.18;;
23119;SDS011;11729;50.836;4.330;2022-08-02T07:14:49;6.38;;;5.50;;
23119;SDS011;11729;50.836;4.330;2022-08-02T07:17:15;6.85;;;5.15;;
23119;SDS011;11729;50.836;4.330;2022-08-02T07:19:41;8.80;;;5.28;;
23119;SDS011;11729;50.836;4.330;2022-08-02T07:22:06;6.88;;;5.10;;
23119;SDS011;11729;50.836;4.330;2022-08-02T07:24:32;5.82;;;5.22;;
23119;SDS011;11729;50.836;4.330;2022-08-02T07:26:58;11.85;;;5.22;;
23119;SDS011;11729;50.836;4.330;2022-08-02T07:29:24;7.63;;;5.38;;
23119;SDS011;11729;50.836;4.330;2022-08-02T07:31:49;5.82;;;5.07;;
23119;SDS011;11729;50.836;4.330;2022-08-02T07:34:15;6.55;;;5.05;;
23119;SDS011;11729;50.836;4.330;2022-08-02T07:36:41;7.75;;;5.10;;
23119;SDS011;11729;50.836;4.330;2022-08-02T07:39:06;10.95;;;5.40;;
23119;SDS011;11729;50.836;4.330;2022-08-02T07:41:32;6.05;;;5.50;;
23119;SDS011;11729;50.836;4.330;2022-08-02T07:43:57;9.65;;;4.90;;
23119;SDS011;11729;50.836;4.330;2022-08-02T07:46:23;9.40;;;5.03;;
23119;SDS011;11729;50.836;4.330;2022-08-02T07:48:49;6.43;;;5.13;;
23119;SDS011;11729;50.836;4.330;2022-08-02T07:51:18;6.15;;;4.53;;
23119;SDS011;11729;50.836;4.330;2022-08-02T07:53:47;5.10;;;4.65;;
23119;SDS011;11729;50.836;4.330;2022-08-02T07:56:13;9.02;;;5.10;;
23119;SDS011;11729;50.836;4.330;2022-08-02T07:58:40;10.40;;;4.40;;
23119;SDS011;11729;50.836;4.330;2022-08-02T08:01:06;6.60;;;4.70;;
23119;SDS011;11729;50.836;4.330;2022-08-02T08:03:33;4.95;;;4.50;;
23119;SDS011;11729;50.836;4.330;2022-08-02T08:05:59;9.38;;;5.00;;
23119;SDS011;11729;50.836;4.330;2022-08-02T08:08:25;8.27;;;4.60;;
23119;SDS011;11729;50.836;4.330;2022-08-02T08:10:51;6.18;;;4.50;;
23119;SDS011;11729;50.836;4.330;2022-08-02T08:13:17;6.90;;;4.20;;
23119;SDS011;11729;50.836;4.330;2022-08-02T08:15:43;4.60;;;4.13;;
23119;SDS011;11729;50.836;4.330;2022-08-02T08:18:09;8.40;;;4.78;;
23119;SDS011;11729;50.836;4.330;2022-08-02T08:20:35;5.15;;;4.28;;
23119;SDS011;11729;50.836;4.330;2022-08-02T08:23:01;6.25;;;4.30;;
23119;SDS011;11729;50.836;4.330;2022-08-02T08:25:27;4.82;;;4.40;;
23119;SDS011;11729;50.836;4.330;2022-08-02T08:27:52;6.78;;;4.53;;
23119;SDS011;11729;50.836;4.330;2022-08-02T08:30:19;6.07;;;4.30;;
23119;SDS011;11729;50.836;4.330;2022-08-02T08:32:46;5.93;;;4.53;;
23119;SDS011;11729;50.836;4.330;2022-08-02T08:35:11;4.63;;;4.22;;
23119;SDS011;11729;50.836;4.330;2022-08-02T08:37:37;7.10;;;4.40;;
23119;SDS011;11729;50.836;4.330;2022-08-02T08:40:04;6.07;;;4.20;;
23119;SDS011;11729;50.836;4.330;2022-08-02T08:44:57;10.27;;;4.37;;
23119;SDS011;11729;50.836;4.330;2022-08-02T08:47:26;11.50;;;4.25;;
23119;SDS011;11729;50.836;4.330;2022-08-02T08:49:58;10.18;;;4.18;;
23119;SDS011;11729;50.836;4.330;2022-08-02T08:52:27;8.88;;;5.03;;
23119;SDS011;11729;50.836;4.330;2022-08-02T08:54:53;12.38;;;4.75;;
23119;SDS011;11729;50.836;4.330;2022-08-02T08:57:19;12.77;;;4.20;;
23119;SDS011;11729;50.836;4.330;2022-08-02T08:59:45;5.28;;;4.40;;
23119;SDS011;11729;50.836;4.330;2022-08-02T09:02:11;5.03;;;4.30;;
23119;SDS011;11729;50.836;4.330;2022-08-02T09:04:37;7.78;;;4.00;;
23119;SDS011;11729;50.836;4.330;2022-08-02T09:07:02;6.50;;;4.38;;
23119;SDS011;11729;50.836;4.330;2022-08-02T09:09:28;9.55;;;4.75;;
23119;SDS011;11729;50.836;4.330;2022-08-02T09:11:53;8.18;;;4.32;;
23119;SDS011;11729;50.836;4.330;2022-08-02T09:14:36;7.82;;;4.30;;
23119;SDS011;11729;50.836;4.330;2022-08-02T09:17:06;4.22;;;3.83;;
23119;SDS011;11729;50.836;4.330;2022-08-02T09:19:33;8.43;;;4.38;;
23119;SDS011;11729;50.836;4.330;2022-08-02T09:22:03;4.47;;;3.80;;
23119;SDS011;11729;50.836;4.330;2022-08-02T09:24:52;4.70;;;4.13;;
23119;SDS011;11729;50.836;4.330;2022-08-02T09:27:18;4.60;;;4.20;;
23119;SDS011;11729;50.836;4.330;2022-08-02T09:29:46;5.85;;;4.55;;
23119;SDS011;11729;50.836;4.330;2022-08-02T09:32:13;4.88;;;4.35;;
23119;SDS011;11729;50.836;4.330;2022-08-02T09:37:22;8.63;;;4.55;;
23119;SDS011;11729;50.836;4.330;2022-08-02T09:39:57;5.30;;;4.15;;
23119;SDS011;11729;50.836;4.330;2022-08-02T09:42:24;7.80;;;4.60;;
23119;SDS011;11729;50.836;4.330;2022-08-02T09:44:54;6.63;;;4.40;;
23119;SDS011;11729;50.836;4.330;2022-08-02T09:47:20;5.72;;;4.50;;
23119;SDS011;11729;50.836;4.330;2022-08-02T09:49:47;5.97;;;4.35;;
23119;SDS011;11729;50.836;4.330;2022-08-02T09:52:13;4.93;;;4.50;;
23119;SDS011;11729;50.836;4.330;2022-08-02T09:54:39;7.50;;;4.60;;
23119;SDS011;11729;50.836;4.330;2022-08-02T09:57:06;8.88;;;4.78;;
23119;SDS011;11729;50.836;4.330;2022-08-02T09:59:32;8.02;;;4.53;;
23119;SDS011;11729;50.836;4.330;2022-08-02T10:01:59;7.68;;;4.45;;
23119;SDS011;11729;50.836;4.330;2022-08-02T10:04:30;7.55;;;4.25;;
23119;SDS011;11729;50.836;4.330;2022-08-02T10:09:23;5.53;;;4.10;;
23119;SDS011;11729;50.836;4.330;2022-08-02T10:11:50;4.72;;;4.22;;
23119;SDS011;11729;50.836;4.330;2022-08-02T10:14:16;6.57;;;4.30;;
23119;SDS011;11729;50.836;4.330;2022-08-02T10:16:44;6.15;;;4.10;;
23119;SDS011;11729;50.836;4.330;2022-08-02T10:19:10;5.47;;;4.10;;
23119;SDS011;11729;50.836;4.330;2022-08-02T10:21:36;4.70;;;4.10;;
23119;SDS011;11729;50.836;4.330;2022-08-02T10:24:10;9.82;;;4.53;;
23119;SDS011;11729;50.836;4.330;2022-08-02T10:26:38;11.30;;;4.45;;
23119;SDS011;11729;50.836;4.330;2022-08-02T10:29:10;6.72;;;4.28;;
23119;SDS011;11729;50.836;4.330;2022-08-02T10:31:42;9.07;;;4.10;;
23119;SDS011;11729;50.836;4.330;2022-08-02T10:34:19;5.85;;;3.92;;
23119;SDS011;11729;50.836;4.330;2022-08-02T10:36:48;5.10;;;3.92;;
23119;SDS011;11729;50.836;4.330;2022-08-02T10:39:15;6.85;;;3.80;;
23119;SDS011;11729;50.836;4.330;2022-08-02T10:41:50;12.05;;;4.63;;
23119;SDS011;11729;50.836;4.330;2022-08-02T10:44:30;4.97;;;4.10;;
23119;SDS011;11729;50.836;4.330;2022-08-02T10:49:49;9.90;;;3.92;;
23119;SDS011;11729;50.836;4.330;2022-08-02T10:52:15;5.30;;;3.95;;
23119;SDS011;11729;50.836;4.330;2022-08-02T10:54:43;4.05;;;3.72;;
23119;SDS011;11729;50.836;4.330;2022-08-02T10:57:23;6.38;;;3.70;;
23119;SDS011;11729;50.836;4.330;2022-08-02T10:59:54;9.20;;;3.92;;
23119;SDS011;11729;50.836;4.330;2022-08-02T11:02:37;6.40;;;4.00;;
23119;SDS011;11729;50.836;4.330;2022-08-02T11:05:08;4.28;;;3.95;;
23119;SDS011;11729;50.836;4.330;2022-08-02T11:07:36;7.03;;;4.28;;
23119;SDS011;11729;50.836;4.330;2022-08-02T11:10:44;4.60;;;4.00;;
23119;SDS011;11729;50.836;4.330;2022-08-02T11:15:29;4.80;;;3.80;;
23119;SDS011;11729;50.836;4.330;2022-08-02T11:18:15;11.20;;;4.15;;
23119;SDS011;11729;50.836;4.330;2022-08-02T11:20:42;7.60;;;3.90;;
23119;SDS011;11729;50.836;4.330;2022-08-02T11:25:59;5.00;;;4.03;;
23119;SDS011;11729;50.836;4.330;2022-08-02T11:30:56;6.13;;;4.10;;
23119;SDS011;11729;50.836;4.330;2022-08-02T11:33:29;4.65;;;4.13;;
23119;SDS011;11729;50.836;4.330;2022-08-02T11:35:59;7.57;;;3.95;;
23119;SDS011;11729;50.836;4.330;2022-08-02T11:38:26;10.82;;;3.75;;
23119;SDS011;11729;50.836;4.330;2022-08-02T11:40:51;4.80;;;3.85;;
23119;SDS011;11729;50.836;4.330;2022-08-02T11:43:26;5.00;;;3.65;;
23119;SDS011;11729;50.836;4.330;2022-08-02T11:45:52;5.38;;;3.88;;
23119;SDS011;11729;50.836;4.330;2022-08-02T11:53:52;4.87;;;3.97;;
23119;SDS011;11729;50.836;4.330;2022-08-02T11:56:25;6.70;;;4.10;;
23119;SDS011;11729;50.836;4.330;2022-08-02T12:01:34;8.40;;;4.20;;
23119;SDS011;11729;50.836;4.330;2022-08-02T12:04:04;5.07;;;4.43;;
23119;SDS011;11729;50.836;4.330;2022-08-02T12:06:31;5.82;;;3.80;;
23119;SDS011;11729;50.836;4.330;2022-08-02T12:09:02;6.50;;;3.92;;
23119;SDS011;11729;50.836;4.330;2022-08-02T12:11:34;6.70;;;4.28;;
23119;SDS011;11729;50.836;4.330;2022-08-02T12:14:03;4.78;;;4.05;;
23119;SDS011;11729;50.836;4.330;2022-08-02T12:16:36;4.50;;;3.85;;
23119;SDS011;11729;50.836;4.330;2022-08-02T12:19:22;7.65;;;4.15;;
23119;SDS011;11729;50.836;4.330;2022-08-02T12:24:52;7.80;;;3.90;;
23119;SDS011;11729;50.836;4.330;2022-08-02T12:27:37;5.00;;;3.90;;
23119;SDS011;11729;50.836;4.330;2022-08-02T12:30:08;7.55;;;4.10;;
23119;SDS011;11729;50.836;4.330;2022-08-02T12:32:35;8.15;;;4.10;;
23119;SDS011;11729;50.836;4.330;2022-08-02T12:37:36;4.30;;;3.53;;
23119;SDS011;11729;50.836;4.330;2022-08-02T12:42:48;15.30;;;4.35;;
23119;SDS011;11729;50.836;4.330;2022-08-02T12:45:14;5.22;;;4.00;;
23119;SDS011;11729;50.836;4.330;2022-08-02T12:47:45;4.32;;;3.80;;
23119;SDS011;11729;50.836;4.330;2022-08-02T12:52:44;8.02;;;3.92;;
23119;SDS011;11729;50.836;4.330;2022-08-02T12:55:15;9.00;;;3.80;;
23119;SDS011;11729;50.836;4.330;2022-08-02T12:57:52;4.25;;;3.80;;
23119;SDS011;11729;50.836;4.330;2022-08-02T13:00:28;4.18;;;3.70;;
23119;SDS011;11729;50.836;4.330;2022-08-02T13:02:59;4.55;;;3.67;;
23119;SDS011;11729;50.836;4.330;2022-08-02T13:05:25;5.13;;;3.70;;
23119;SDS011;11729;50.836;4.330;2022-08-02T13:07:53;9.10;;;3.70;;
23119;SDS011;11729;50.836;4.330;2022-08-02T13:10:20;9.65;;;3.70;;
23119;SDS011;11729;50.836;4.330;2022-08-02T13:12:46;6.47;;;3.60;;
23119;SDS011;11729;50.836;4.330;2022-08-02T13:15:13;5.30;;;3.90;;
23119;SDS011;11729;50.836;4.330;2022-08-02T13:17:40;5.53;;;3.85;;
23119;SDS011;11729;50.836;4.330;2022-08-02T13:20:06;4.57;;;3.90;;
23119;SDS011;11729;50.836;4.330;2022-08-02T13:22:32;7.43;;;3.83;;
23119;SDS011;11729;50.836;4.330;2022-08-02T13:24:58;5.73;;;3.60;;
23119;SDS011;11729;50.836;4.330;2022-08-02T13:27:24;4.57;;;3.53;;
23119;SDS011;11729;50.836;4.330;2022-08-02T13:29:51;12.05;;;4.05;;
23119;SDS011;11729;50.836;4.330;2022-08-02T13:32:18;4.70;;;3.70;;
23119;SDS011;11729;50.836;4.330;2022-08-02T13:34:44;4.13;;;3.72;;
23119;SDS011;11729;50.836;4.330;2022-08-02T13:37:09;7.47;;;3.90;;
23119;SDS011;11729;50.836;4.330;2022-08-02T13:39:36;9.70;;;3.87;;
23119;SDS011;11729;50.836;4.330;2022-08-02T13:42:01;4.97;;;3.78;;
23119;SDS011;11729;50.836;4.330;2022-08-02T13:44:27;7.53;;;4.03;;
23119;SDS011;11729;50.836;4.330;2022-08-02T13:46:53;4.30;;;3.80;;
23119;SDS011;11729;50.836;4.330;2022-08-02T13:49:18;8.27;;;3.83;;
23119;SDS011;11729;50.836;4.330;2022-08-02T13:51:45;7.55;;;3.90;;
23119;SDS011;11729;50.836;4.330;2022-08-02T13:54:11;9.05;;;3.80;;
23119;SDS011;11729;50.836;4.330;2022-08-02T13:56:37;4.28;;;3.97;;
23119;SDS011;11729;50.836;4.330;2022-08-02T13:59:02;5.47;;;4.88;;
23119;SDS011;11729;50.836;4.330;2022-08-02T14:01:28;9.77;;;4.20;;
23119;SDS011;11729;50.836;4.330;2022-08-02T14:03:54;8.90;;;4.43;;
23119;SDS011;11729;50.836;4.330;2022-08-02T14:06:20;8.40;;;4.22;;
23119;SDS011;11729;50.836;4.330;2022-08-02T14:08:46;7.90;;;3.67;;
23119;SDS011;11729;50.836;4.330;2022-08-02T14:11:12;12.27;;;4.53;;
23119;SDS011;11729;50.836;4.330;2022-08-02T14:13:38;8.52;;;3.88;;
23119;SDS011;11729;50.836;4.330;2022-08-02T14:16:03;5.07;;;3.90;;
23119;SDS011;11729;50.836;4.330;2022-08-02T14:18:29;12.30;;;4.20;;
23119;SDS011;11729;50.836;4.330;2022-08-02T14:20:55;10.80;;;4.13;;
23119;SDS011;11729;50.836;4.330;2022-08-02T14:23:21;4.00;;;3.50;;
23119;SDS011;11729;50.836;4.330;2022-08-02T14:25:46;13.43;;;4.45;;
23119;SDS011;11729;50.836;4.330;2022-08-02T14:28:12;7.65;;;3.63;;
23119;SDS011;11729;50.836;4.330;2022-08-02T14:30:38;8.82;;;3.83;;
23119;SDS011;11729;50.836;4.330;2022-08-02T14:33:03;5.35;;;3.70;;
23119;SDS011;11729;50.836;4.330;2022-08-02T14:35:29;6.35;;;4.00;;
23119;SDS011;11729;50.836;4.330;2022-08-02T14:37:55;9.10;;;3.97;;
23119;SDS011;11729;50.836;4.330;2022-08-02T14:40:21;5.90;;;3.80;;
23119;SDS011;11729;50.836;4.330;2022-08-02T14:42:47;6.75;;;3.75;;
23119;SDS011;11729;50.836;4.330;2022-08-02T14:45:15;5.70;;;4.05;;
23119;SDS011;11729;50.836;4.330;2022-08-02T14:47:43;6.20;;;4.32;;
23119;SDS011;11729;50.836;4.330;2022-08-02T14:50:09;13.80;;;4.38;;
23119;SDS011;11729;50.836;4.330;2022-08-02T14:52:35;8.20;;;4.45;;
23119;SDS011;11729;50.836;4.330;2022-08-02T14:55:01;12.63;;;4.90;;
23119;SDS011;11729;50.836;4.330;2022-08-02T14:57:29;4.88;;;3.80;;
23119;SDS011;11729;50.836;4.330;2022-08-02T14:59:55;10.52;;;4.00;;
23119;SDS011;11729;50.836;4.330;2022-08-02T15:02:24;6.53;;;3.95;;
23119;SDS011;11729;50.836;4.330;2022-08-02T15:04:51;9.20;;;5.40;;
23119;SDS011;11729;50.836;4.330;2022-08-02T15:07:17;12.80;;;3.95;;
23119;SDS011;11729;50.836;4.330;2022-08-02T15:09:42;10.75;;;4.15;;
23119;SDS011;11729;50.836;4.330;2022-08-02T15:12:09;6.00;;;3.90;;
23119;SDS011;11729;50.836;4.330;2022-08-02T15:14:35;10.93;;;4.22;;
23119;SDS011;11729;50.836;4.330;2022-08-02T15:17:02;8.15;;;4.15;;
23119;SDS011;11729;50.836;4.330;2022-08-02T15:19:28;17.15;;;4.40;;
23119;SDS011;11729;50.836;4.330;2022-08-02T15:21:55;5.32;;;4.10;;
23119;SDS011;11729;50.836;4.330;2022-08-02T15:24:21;5.53;;;4.20;;
23119;SDS011;11729;50.836;4.330;2022-08-02T15:26:46;11.02;;;4.60;;
23119;SDS011;11729;50.836;4.330;2022-08-02T15:31:39;6.03;;;4.05;;
23119;SDS011;11729;50.836;4.330;2022-08-02T15:34:05;8.68;;;4.25;;
23119;SDS011;11729;50.836;4.330;2022-08-02T15:36:31;7.63;;;4.35;;
23119;SDS011;11729;50.836;4.330;2022-08-02T15:38:56;7.60;;;4.60;;
23119;SDS011;11729;50.836;4.330;2022-08-02T15:41:22;11.60;;;4.05;;
23119;SDS011;11729;50.836;4.330;2022-08-02T15:43:48;7.80;;;4.35;;
23119;SDS011;11729;50.836;4.330;2022-08-02T15:46:14;5.22;;;3.78;;
23119;SDS011;11729;50.836;4.330;2022-08-02T15:48:39;10.00;;;4.20;;
23119;SDS011;11729;50.836;4.330;2022-08-02T15:51:05;5.07;;;4.22;;
23119;SDS011;11729;50.836;4.330;2022-08-02T15:53:31;7.65;;;4.18;;
23119;SDS011;11729;50.836;4.330;2022-08-02T15:55:56;5.95;;;4.10;;
23119;SDS011;11729;50.836;4.330;2022-08-02T15:58:22;10.23;;;4.07;;
23119;SDS011;11729;50.836;4.330;2022-08-02T16:00:48;6.47;;;4.07;;